Time;durP1;ratioP1;P1;durP2;ratioP2;P2;SDS_P1;SDS_P2;PMS_P1;PMS_P2;Temp;Humidity;BMP_temperature;BMP_pressure;BME280_temperature;BME280_humidity;BME280_pressure;Samples;Min_cycle;Max_cycle;Signal;HPM_P1;HPM_P2
2021/07/15 00:00:41;;;;;;;6.70;4.25;;;;;;;;;;5016313;28;20370;-68
2021/07/15 00:03:08;;;;;;;6.65;3.88;;;;;;;;;;5016695;28;20026;-67
2021/07/15 00:05:36;;;;;;;8.63;4.32;;;;;;;;;;5016164;28;20030;-68
2021/07/15 00:08:02;;;;;;;6.15;3.60;;;;;;;;;;5016210;28;20026;-67
2021/07/15 00:10:34;;;;;;;7.38;4.35;;;;;;;;;;5016043;28;20113;-67
2021/07/15 00:13:00;;;;;;;7.30;3.80;;;;;;;;;;5016300;28;20029;-67
2021/07/15 00:15:27;;;;;;;6.72;4.03;;;;;;;;;;5015961;28;20507;-67
2021/07/15 00:17:55;;;;;;;6.47;3.40;;;;;;;;;;5015912;28;20022;-67
2021/07/15 00:20:21;;;;;;;4.78;3.58;;;;;;;;;;5015921;28;20069;-67
2021/07/15 00:22:48;;;;;;;4.50;3.15;;;;;;;;;;5015868;28;20503;-66
2021/07/15 00:25:16;;;;;;;4.53;3.10;;;;;;;;;;5015832;28;20453;-67
2021/07/15 00:27:42;;;;;;;5.45;3.17;;;;;;;;;;5015824;28;20365;-67
2021/07/15 00:30:10;;;;;;;4.18;3.03;;;;;;;;;;5015482;28;20052;-68
2021/07/15 00:32:36;;;;;;;7.57;3.33;;;;;;;;;;5015518;28;20084;-68
2021/07/15 00:35:02;;;;;;;6.15;3.33;;;;;;;;;;5018687;28;20049;-68
2021/07/15 00:37:29;;;;;;;3.95;3.15;;;;;;;;;;5035345;28;20018;-67
2021/07/15 00:39:55;;;;;;;6.53;3.15;;;;;;;;;;5035273;28;20489;-67
2021/07/15 00:42:21;;;;;;;6.50;4.07;;;;;;;;;;5020256;28;20034;-67
2021/07/15 00:44:47;;;;;;;7.80;3.10;;;;;;;;;;5015512;28;20473;-67
2021/07/15 00:47:13;;;;;;;6.97;3.42;;;;;;;;;;5015485;28;20075;-66
2021/07/15 00:49:39;;;;;;;5.07;2.85;;;;;;;;;;5015434;28;20026;-67
2021/07/15 00:52:11;;;;;;;3.90;3.05;;;;;;;;;;5015286;28;20029;-67
2021/07/15 00:54:38;;;;;;;5.75;2.88;;;;;;;;;;5015598;28;20033;-67
2021/07/15 00:57:04;;;;;;;5.15;3.10;;;;;;;;;;5015016;28;20022;-67
2021/07/15 00:59:30;;;;;;;5.15;2.92;;;;;;;;;;5015235;28;20112;-68
2021/07/15 01:01:56;;;;;;;4.07;3.00;;;;;;;;;;5015442;28;20425;-67
2021/07/15 01:04:22;;;;;;;5.85;2.90;;;;;;;;;;5015188;28;20034;-67
2021/07/15 01:06:48;;;;;;;7.35;2.90;;;;;;;;;;5015033;28;20084;-67
2021/07/15 01:09:14;;;;;;;3.63;2.50;;;;;;;;;;5014916;28;20033;-67
2021/07/15 01:11:51;;;;;;;4.82;3.10;;;;;;;;;;5014756;28;20120;-67
2021/07/15 01:14:33;;;;;;;5.85;3.10;;;;;;;;;;5015246;28;20399;-67
2021/07/15 01:17:14;;;;;;;4.63;3.33;;;;;;;;;;5014866;28;20029;-67
2021/07/15 01:19:58;;;;;;;5.72;3.20;;;;;;;;;;5014843;28;20477;-68
2021/07/15 01:22:30;;;;;;;4.22;3.15;;;;;;;;;;5014810;28;20168;-67
2021/07/15 01:25:11;;;;;;;4.32;2.92;;;;;;;;;;5014920;28;20032;-67
2021/07/15 01:27:40;;;;;;;4.22;3.13;;;;;;;;;;5014881;28;20030;-67
2021/07/15 01:30:07;;;;;;;4.90;3.03;;;;;;;;;;5014595;28;20026;-66
2021/07/15 01:32:37;;;;;;;5.95;3.83;;;;;;;;;;5014618;28;20018;-67
2021/07/15 01:35:05;;;;;;;4.25;2.72;;;;;;;;;;5013197;28;20025;-66
2021/07/15 01:37:32;;;;;;;3.67;2.88;;;;;;;;;;5014583;28;20038;-67
2021/07/15 01:40:00;;;;;;;3.72;2.65;;;;;;;;;;5014368;28;20050;-67
2021/07/15 01:42:27;;;;;;;4.05;2.60;;;;;;;;;;5014422;28;20104;-67
2021/07/15 01:44:54;;;;;;;4.68;2.70;;;;;;;;;;5014394;28;20022;-67
2021/07/15 01:47:20;;;;;;;5.32;3.15;;;;;;;;;;5014464;28;20080;-68
2021/07/15 01:49:47;;;;;;;4.40;2.80;;;;;;;;;;5014410;28;20532;-68
2021/07/15 01:52:15;;;;;;;5.07;2.83;;;;;;;;;;5014333;28;20519;-67
2021/07/15 01:54:41;;;;;;;4.25;2.58;;;;;;;;;;5014143;28;20088;-67
2021/07/15 01:57:08;;;;;;;4.43;2.75;;;;;;;;;;5014239;28;20657;-67
2021/07/15 01:59:36;;;;;;;4.85;2.58;;;;;;;;;;5014203;28;20029;-68
2021/07/15 02:02:03;;;;;;;4.72;2.90;;;;;;;;;;5014078;28;20476;-67
2021/07/15 02:04:30;;;;;;;4.53;2.80;;;;;;;;;;5014158;28;20469;-66
2021/07/15 02:06:57;;;;;;;4.57;2.90;;;;;;;;;;5013778;28;20108;-67
2021/07/15 02:09:24;;;;;;;3.92;2.45;;;;;;;;;;5013833;28;20100;-67
2021/07/15 02:11:50;;;;;;;3.88;2.60;;;;;;;;;;5013717;28;20026;-68
2021/07/15 02:14:17;;;;;;;4.88;2.78;;;;;;;;;;5013938;28;20026;-67
2021/07/15 02:16:45;;;;;;;3.75;2.38;;;;;;;;;;5013782;28;20021;-67
2021/07/15 02:19:12;;;;;;;4.43;2.83;;;;;;;;;;5013809;28;20057;-67
2021/07/15 02:21:39;;;;;;;4.03;2.65;;;;;;;;;;5013890;28;20029;-66
2021/07/15 02:24:06;;;;;;;3.05;2.63;;;;;;;;;;5013543;28;20022;-67
2021/07/15 02:26:32;;;;;;;3.85;3.03;;;;;;;;;;5013607;28;20021;-67
2021/07/15 02:28:58;;;;;;;3.90;2.88;;;;;;;;;;5013698;28;20033;-68
2021/07/15 02:31:30;;;;;;;4.75;2.70;;;;;;;;;;5013409;28;20026;-67
2021/07/15 02:34:02;;;;;;;5.97;2.70;;;;;;;;;;5013506;28;20034;-68
2021/07/15 02:36:29;;;;;;;4.57;2.90;;;;;;;;;;5013415;28;20029;-67
2021/07/15 02:38:57;;;;;;;5.75;2.80;;;;;;;;;;5013231;28;20042;-67
2021/07/15 02:41:23;;;;;;;3.30;2.55;;;;;;;;;;5013319;28;20567;-67
2021/07/15 02:43:49;;;;;;;3.75;2.40;;;;;;;;;;5013624;28;20096;-67
2021/07/15 02:46:15;;;;;;;3.50;2.70;;;;;;;;;;5013349;28;20366;-66
2021/07/15 02:48:41;;;;;;;3.47;3.15;;;;;;;;;;5013227;28;20076;-67
2021/07/15 02:51:07;;;;;;;4.05;3.08;;;;;;;;;;5013062;28;20036;-66
2021/07/15 02:53:34;;;;;;;3.28;2.70;;;;;;;;;;5013090;28;20033;-66
2021/07/15 02:56:10;;;;;;;4.45;2.88;;;;;;;;;;5013302;28;20438;-68
2021/07/15 02:58:39;;;;;;;4.10;2.58;;;;;;;;;;5013442;28;20493;-67
2021/07/15 03:01:07;;;;;;;3.88;2.55;;;;;;;;;;5013275;28;20432;-66
2021/07/15 03:03:50;;;;;;;5.38;2.60;;;;;;;;;;5012987;28;20026;-67
2021/07/15 03:06:43;;;;;;;3.33;2.60;;;;;;;;;;5012814;28;20034;-68
2021/07/15 03:09:11;;;;;;;5.80;3.28;;;;;;;;;;5009416;28;20042;-66
2021/07/15 03:12:00;;;;;;;3.90;2.58;;;;;;;;;;5012802;28;20057;-68
2021/07/15 03:14:30;;;;;;;4.25;3.00;;;;;;;;;;5002714;28;20036;-68
2021/07/15 03:16:57;;;;;;;3.08;2.55;;;;;;;;;;5011092;28;20095;-67
2021/07/15 03:19:23;;;;;;;5.53;2.88;;;;;;;;;;5012801;28;20433;-67
2021/07/15 03:21:50;;;;;;;3.88;2.80;;;;;;;;;;5012637;28;20022;-67
2021/07/15 03:24:18;;;;;;;4.68;2.65;;;;;;;;;;5012778;28;20091;-68
2021/07/15 03:26:46;;;;;;;5.97;2.90;;;;;;;;;;5013061;28;20121;-68
2021/07/15 03:29:12;;;;;;;3.80;2.60;;;;;;;;;;5012539;28;20496;-67
2021/07/15 03:31:39;;;;;;;3.90;2.60;;;;;;;;;;5012967;28;20164;-67
2021/07/15 03:34:05;;;;;;;5.22;3.22;;;;;;;;;;5012523;28;20022;-67
2021/07/15 03:36:33;;;;;;;3.80;2.60;;;;;;;;;;5012447;28;20100;-67
2021/07/15 03:38:59;;;;;;;3.50;2.60;;;;;;;;;;5012426;28;20624;-67
2021/07/15 03:41:25;;;;;;;12.00;3.63;;;;;;;;;;5022492;28;20033;-66
2021/07/15 03:43:52;;;;;;;4.45;3.03;;;;;;;;;;5032342;28;20657;-67
2021/07/15 03:46:19;;;;;;;3.25;2.88;;;;;;;;;;5032275;28;20036;-67
2021/07/15 03:48:46;;;;;;;3.58;2.60;;;;;;;;;;5032241;28;20029;-67
2021/07/15 03:51:12;;;;;;;4.35;2.72;;;;;;;;;;5031949;28;20061;-68
2021/07/15 03:53:40;;;;;;;4.40;2.80;;;;;;;;;;5032195;28;20025;-67
2021/07/15 03:56:08;;;;;;;5.25;2.90;;;;;;;;;;5032658;28;20021;-68
2021/07/15 03:58:36;;;;;;;4.28;2.40;;;;;;;;;;5032013;28;20026;-68
2021/07/15 04:01:04;;;;;;;8.18;3.20;;;;;;;;;;5032013;28;20056;-68
2021/07/15 04:03:30;;;;;;;5.00;3.25;;;;;;;;;;5032401;28;20029;-67
2021/07/15 04:05:57;;;;;;;7.88;3.53;;;;;;;;;;5032303;28;20033;-67
2021/07/15 04:08:24;;;;;;;4.40;3.00;;;;;;;;;;5032365;28;20075;-67
2021/07/15 04:10:51;;;;;;;3.67;2.40;;;;;;;;;;5032010;28;20072;-67
2021/07/15 04:13:17;;;;;;;3.83;2.70;;;;;;;;;;5032063;28;20018;-68
2021/07/15 04:15:55;;;;;;;3.47;2.42;;;;;;;;;;5032078;28;20025;-67
2021/07/15 04:18:26;;;;;;;3.55;2.78;;;;;;;;;;5031859;28;20104;-67
2021/07/15 04:20:52;;;;;;;3.53;2.50;;;;;;;;;;5032053;28;20365;-67
2021/07/15 04:23:20;;;;;;;3.53;2.60;;;;;;;;;;5031994;28;20156;-67
2021/07/15 04:25:51;;;;;;;3.88;2.70;;;;;;;;;;5031973;28;20107;-67
2021/07/15 04:28:17;;;;;;;3.13;2.75;;;;;;;;;;5032689;28;20376;-66
2021/07/15 04:30:50;;;;;;;3.53;2.35;;;;;;;;;;5035644;28;20025;-67
2021/07/15 04:33:16;;;;;;;5.00;2.92;;;;;;;;;;5035324;28;20387;-66
2021/07/15 04:35:42;;;;;;;4.38;3.15;;;;;;;;;;5028828;28;20030;-68
2021/07/15 04:38:08;;;;;;;4.72;3.35;;;;;;;;;;5015536;28;20477;-67
2021/07/15 04:40:35;;;;;;;3.90;2.72;;;;;;;;;;5015727;28;20400;-67
2021/07/15 04:43:06;;;;;;;3.30;2.63;;;;;;;;;;5015550;28;20488;-67
2021/07/15 04:45:34;;;;;;;4.63;2.67;;;;;;;;;;5015674;28;20033;-67
2021/07/15 04:48:00;;;;;;;4.78;3.10;;;;;;;;;;5015322;28;20029;-67
2021/07/15 04:50:31;;;;;;;5.03;3.78;;;;;;;;;;5015679;28;20030;-67
2021/07/15 04:52:59;;;;;;;6.25;3.17;;;;;;;;;;5015349;28;20025;-67
2021/07/15 04:55:26;;;;;;;5.00;3.17;;;;;;;;;;5015412;28;20101;-67
2021/07/15 04:57:53;;;;;;;3.95;2.70;;;;;;;;;;5015209;28;20021;-67
2021/07/15 05:00:20;;;;;;;5.22;2.80;;;;;;;;;;5015251;28;20053;-67
2021/07/15 05:02:48;;;;;;;4.55;3.03;;;;;;;;;;5015219;28;20057;-68
2021/07/15 05:05:14;;;;;;;6.65;2.58;;;;;;;;;;5015230;28;20037;-67
2021/07/15 05:07:40;;;;;;;3.67;2.75;;;;;;;;;;5015134;28;20385;-69
2021/07/15 05:10:08;;;;;;;4.38;2.90;;;;;;;;;;5015026;28;20026;-67
2021/07/15 05:12:34;;;;;;;3.28;2.92;;;;;;;;;;5015050;28;20127;-68
2021/07/15 05:15:01;;;;;;;3.38;2.70;;;;;;;;;;5015414;28;20030;-66
2021/07/15 05:17:27;;;;;;;4.30;3.00;;;;;;;;;;5014784;28;20022;-67
2021/07/15 05:19:53;;;;;;;4.07;2.90;;;;;;;;;;5015155;28;20041;-66
2021/07/15 05:22:19;;;;;;;4.05;2.85;;;;;;;;;;5013724;28;20029;-66
2021/07/15 05:24:46;;;;;;;3.85;2.63;;;;;;;;;;5014896;28;20385;-67
2021/07/15 05:27:12;;;;;;;3.95;2.95;;;;;;;;;;5014969;28;20109;-67
2021/07/15 05:29:38;;;;;;;4.22;3.10;;;;;;;;;;5014748;28;20026;-68
2021/07/15 05:32:04;;;;;;;4.07;2.65;;;;;;;;;;5014385;28;20030;-68
2021/07/15 05:34:31;;;;;;;4.32;2.85;;;;;;;;;;5014816;28;20428;-68
2021/07/15 05:36:57;;;;;;;3.65;2.70;;;;;;;;;;5014466;28;20029;-67
2021/07/15 05:39:23;;;;;;;4.25;3.45;;;;;;;;;;5014314;28;20054;-67
2021/07/15 05:41:49;;;;;;;6.20;3.08;;;;;;;;;;5013853;28;20100;-67
2021/07/15 05:44:15;;;;;;;4.95;3.22;;;;;;;;;;5014464;28;20030;-67
2021/07/15 05:46:41;;;;;;;5.32;2.85;;;;;;;;;;5014206;28;20030;-67
2021/07/15 05:49:07;;;;;;;4.43;2.83;;;;;;;;;;5014263;28;20105;-67
2021/07/15 05:51:33;;;;;;;4.65;2.60;;;;;;;;;;5014689;28;20088;-70
2021/07/15 05:53:59;;;;;;;4.43;3.55;;;;;;;;;;5014245;28;20033;-68
2021/07/15 05:56:26;;;;;;;4.38;3.13;;;;;;;;;;5014189;28;20149;-67
2021/07/15 05:58:52;;;;;;;4.72;2.90;;;;;;;;;;5014082;28;20026;-67
2021/07/15 06:01:19;;;;;;;4.32;3.03;;;;;;;;;;5014019;28;20029;-68
2021/07/15 06:03:45;;;;;;;4.75;3.28;;;;;;;;;;5014275;28;20100;-67
2021/07/15 06:06:11;;;;;;;4.88;3.10;;;;;;;;;;5014045;28;20030;-67
2021/07/15 06:08:37;;;;;;;6.22;3.38;;;;;;;;;;5014047;28;20120;-66
2021/07/15 06:11:03;;;;;;;6.60;3.40;;;;;;;;;;5013849;28;20034;-67
2021/07/15 06:13:30;;;;;;;5.60;3.15;;;;;;;;;;5014096;28;20105;-67
2021/07/15 06:15:56;;;;;;;5.72;3.13;;;;;;;;;;5013814;28;20024;-67
2021/07/15 06:18:22;;;;;;;3.55;2.88;;;;;;;;;;5013774;28;20018;-67
2021/07/15 06:20:48;;;;;;;4.10;2.78;;;;;;;;;;5013713;28;20476;-68
2021/07/15 06:23:14;;;;;;;3.78;2.60;;;;;;;;;;5012315;28;20460;-68
2021/07/15 06:25:40;;;;;;;4.55;3.20;;;;;;;;;;5013708;28;20025;-68
2021/07/15 06:28:06;;;;;;;4.47;3.35;;;;;;;;;;5013539;28;20033;-68
2021/07/15 06:30:32;;;;;;;5.13;3.15;;;;;;;;;;5013383;28;20022;-69
2021/07/15 06:32:58;;;;;;;5.32;3.15;;;;;;;;;;5013590;28;20503;-67
2021/07/15 06:35:24;;;;;;;4.82;3.20;;;;;;;;;;5013380;28;20026;-64
2021/07/15 06:37:54;;;;;;;5.97;3.70;;;;;;;;;;5013767;28;20171;-67
2021/07/15 06:40:21;;;;;;;4.45;3.55;;;;;;;;;;5028650;28;20069;-67
2021/07/15 06:42:47;;;;;;;3.97;3.03;;;;;;;;;;5032829;28;20074;-68
2021/07/15 06:45:14;;;;;;;4.95;3.50;;;;;;;;;;5032712;28;20100;-66
2021/07/15 06:47:40;;;;;;;4.63;3.28;;;;;;;;;;5033179;28;20021;-68
2021/07/15 06:50:08;;;;;;;6.95;3.50;;;;;;;;;;5032342;28;20400;-67
2021/07/15 06:52:35;;;;;;;6.95;3.83;;;;;;;;;;5034972;28;20036;-67
2021/07/15 06:55:02;;;;;;;5.80;3.15;;;;;;;;;;5032397;28;20032;-67
2021/07/15 06:57:29;;;;;;;5.45;3.30;;;;;;;;;;5026427;28;20113;-69
2021/07/15 06:59:55;;;;;;;4.05;3.15;;;;;;;;;;5029298;28;20373;-68
2021/07/15 07:02:21;;;;;;;5.00;3.03;;;;;;;;;;5029580;28;20047;-67
2021/07/15 07:04:48;;;;;;;5.68;3.22;;;;;;;;;;5008431;28;20689;-68
2021/07/15 07:07:14;;;;;;;5.57;3.20;;;;;;;;;;5024218;28;20609;-69
2021/07/15 07:09:40;;;;;;;4.57;2.92;;;;;;;;;;5017298;28;20022;-68
2021/07/15 07:12:07;;;;;;;3.63;2.78;;;;;;;;;;5028473;28;20037;-67
2021/07/15 07:14:33;;;;;;;4.88;3.22;;;;;;;;;;5028441;28;20369;-68
2021/07/15 07:16:59;;;;;;;4.85;2.88;;;;;;;;;;5023362;28;20033;-68
2021/07/15 07:19:25;;;;;;;5.82;3.30;;;;;;;;;;5023093;28;20105;-67
2021/07/15 07:21:51;;;;;;;4.28;3.10;;;;;;;;;;5027239;28;20480;-68
2021/07/15 07:24:17;;;;;;;4.93;2.88;;;;;;;;;;5027943;28;20057;-67
2021/07/15 07:26:44;;;;;;;5.25;3.40;;;;;;;;;;5029285;28;20036;-67
2021/07/15 07:29:10;;;;;;;4.40;3.10;;;;;;;;;;5015322;28;20072;-69
2021/07/15 07:31:36;;;;;;;5.10;2.83;;;;;;;;;;5009978;28;20030;-68
2021/07/15 07:34:02;;;;;;;4.18;2.88;;;;;;;;;;5009431;28;20029;-68
2021/07/15 07:36:28;;;;;;;4.10;2.65;;;;;;;;;;5021380;28;20025;-68
2021/07/15 07:38:54;;;;;;;4.45;3.00;;;;;;;;;;5021624;28;20039;-69
2021/07/15 07:41:20;;;;;;;4.25;2.97;;;;;;;;;;5020580;28;20518;-67
2021/07/15 07:43:47;;;;;;;4.28;2.60;;;;;;;;;;5015533;28;20029;-68
2021/07/15 07:46:14;;;;;;;6.03;3.22;;;;;;;;;;5020408;28;20033;-68
2021/07/15 07:48:40;;;;;;;5.68;3.38;;;;;;;;;;5018621;28;20028;-67
2021/07/15 07:51:06;;;;;;;4.20;2.60;;;;;;;;;;5021713;28;20037;-67
2021/07/15 07:53:32;;;;;;;4.55;2.80;;;;;;;;;;5018424;28;20492;-69
2021/07/15 07:55:58;;;;;;;5.38;3.00;;;;;;;;;;5027453;28;20091;-69
2021/07/15 07:58:24;;;;;;;3.90;2.75;;;;;;;;;;5024074;28;20184;-69
2021/07/15 08:00:51;;;;;;;3.78;2.90;;;;;;;;;;5018874;28;20547;-68
2021/07/15 08:03:18;;;;;;;4.07;3.08;;;;;;;;;;5025637;28;20091;-68
2021/07/15 08:05:48;;;;;;;3.35;2.58;;;;;;;;;;5018437;28;20542;-69
2021/07/15 08:08:18;;;;;;;5.45;3.15;;;;;;;;;;5024394;28;20034;-68
2021/07/15 08:10:45;;;;;;;5.35;2.90;;;;;;;;;;5018926;28;20083;-68
2021/07/15 08:13:11;;;;;;;4.32;2.67;;;;;;;;;;5021212;28;20057;-67
2021/07/15 08:15:37;;;;;;;4.40;2.90;;;;;;;;;;5028207;28;20083;-67
2021/07/15 08:18:03;;;;;;;4.93;3.30;;;;;;;;;;5022127;28;20041;-67
2021/07/15 08:20:29;;;;;;;4.72;3.30;;;;;;;;;;5024032;28;21739;-70
2021/07/15 08:22:56;;;;;;;4.20;2.90;;;;;;;;;;5027421;28;20026;-68
2021/07/15 08:25:23;;;;;;;7.18;4.32;;;;;;;;;;5025969;28;20029;-67
2021/07/15 08:27:50;;;;;;;5.70;2.80;;;;;;;;;;5016701;28;20022;-68
2021/07/15 08:30:17;;;;;;;5.00;2.85;;;;;;;;;;5018115;28;20647;-67
2021/07/15 08:32:43;;;;;;;5.05;3.10;;;;;;;;;;5017328;28;20443;-67
2021/07/15 08:35:10;;;;;;;3.75;2.95;;;;;;;;;;5024048;28;20105;-67
2021/07/15 08:37:36;;;;;;;4.82;2.95;;;;;;;;;;5025735;28;20034;-66
2021/07/15 08:40:06;;;;;;;5.88;3.00;;;;;;;;;;5016548;28;20413;-67
2021/07/15 08:42:33;;;;;;;4.43;3.17;;;;;;;;;;5027690;28;20040;-67
2021/07/15 08:45:01;;;;;;;4.25;2.97;;;;;;;;;;5017528;28;20096;-66
2021/07/15 08:47:28;;;;;;;5.72;3.20;;;;;;;;;;5028145;28;20184;-65
2021/07/15 08:49:54;;;;;;;5.47;2.63;;;;;;;;;;5018850;28;20022;-68
2021/07/15 08:52:20;;;;;;;4.60;2.97;;;;;;;;;;5026632;28;20032;-68
2021/07/15 08:57:21;;;;;;;4.10;2.95;;;;;;;;;;5022460;28;20033;-67
2021/07/15 08:59:48;;;;;;;5.60;2.83;;;;;;;;;;5013266;28;20084;-66
2021/07/15 09:02:20;;;;;;;4.60;2.80;;;;;;;;;;5023753;28;20033;-66
2021/07/15 09:04:47;;;;;;;3.88;2.25;;;;;;;;;;5013488;28;20419;-68
2021/07/15 09:07:13;;;;;;;4.55;3.22;;;;;;;;;;5021780;28;20132;-67
2021/07/15 09:09:40;;;;;;;2.88;2.50;;;;;;;;;;5021361;28;20033;-67
2021/07/15 09:12:06;;;;;;;4.25;2.80;;;;;;;;;;5011545;28;20049;-67
2021/07/15 09:14:52;;;;;;;4.05;2.72;;;;;;;;;;5016970;28;20029;-67
2021/07/15 09:17:31;;;;;;;3.85;2.58;;;;;;;;;;5023341;28;20026;-67
2021/07/15 09:19:58;;;;;;;6.18;2.90;;;;;;;;;;5024827;28;20037;-68
2021/07/15 09:22:24;;;;;;;3.90;2.80;;;;;;;;;;5019200;28;20034;-68
2021/07/15 09:24:51;;;;;;;5.18;2.70;;;;;;;;;;5026459;28;20078;-67
2021/07/15 09:27:22;;;;;;;3.70;2.92;;;;;;;;;;5021321;28;20021;-68
2021/07/15 09:30:17;;;;;;;3.40;2.63;;;;;;;;;;5019533;28;20033;-67
2021/07/15 09:32:49;;;;;;;3.03;2.67;;;;;;;;;;4999114;28;20108;-67
2021/07/15 09:35:24;;;;;;;4.30;3.10;;;;;;;;;;5010399;28;20026;-67
2021/07/15 09:37:50;;;;;;;4.60;3.05;;;;;;;;;;5009031;28;20044;-67
2021/07/15 09:40:16;;;;;;;2.88;2.53;;;;;;;;;;5009983;28;20069;-67
2021/07/15 09:42:42;;;;;;;3.45;2.70;;;;;;;;;;5017484;28;20091;-67
2021/07/15 09:45:11;;;;;;;4.10;2.83;;;;;;;;;;4994464;28;20373;-67
2021/07/15 09:47:39;;;;;;;4.82;2.80;;;;;;;;;;5025979;28;20096;-67
2021/07/15 09:50:26;;;;;;;4.72;3.40;;;;;;;;;;5017581;28;20033;-68
2021/07/15 09:52:53;;;;;;;4.75;2.97;;;;;;;;;;5029613;28;20116;-68
2021/07/15 09:55:20;;;;;;;3.75;3.00;;;;;;;;;;5025478;28;20030;-67
2021/07/15 09:57:47;;;;;;;4.05;3.00;;;;;;;;;;5012251;28;20029;-67
2021/07/15 10:00:13;;;;;;;8.13;6.82;;;;;;;;;;5015586;28;20025;-67
2021/07/15 10:02:39;;;;;;;4.03;3.25;;;;;;;;;;5025707;28;20504;-68
2021/07/15 10:05:06;;;;;;;3.72;3.05;;;;;;;;;;5018165;28;20030;-69
2021/07/15 10:07:32;;;;;;;6.50;3.10;;;;;;;;;;5014903;28;20495;-67
2021/07/15 10:10:27;;;;;;;5.20;2.85;;;;;;;;;;5016861;28;20035;-68
2021/07/15 10:12:53;;;;;;;3.65;2.72;;;;;;;;;;5010427;28;20056;-70
2021/07/15 10:15:19;;;;;;;4.25;3.00;;;;;;;;;;5028687;28;20056;-67
2021/07/15 10:17:46;;;;;;;4.78;3.00;;;;;;;;;;5019812;28;20116;-69
2021/07/15 10:20:12;;;;;;;2.95;2.50;;;;;;;;;;5023516;28;20017;-68
2021/07/15 10:22:39;;;;;;;4.43;2.88;;;;;;;;;;5017629;28;20480;-67
2021/07/15 10:25:06;;;;;;;4.38;2.88;;;;;;;;;;5018106;28;20034;-67
2021/07/15 10:27:33;;;;;;;4.70;2.83;;;;;;;;;;5022149;28;20033;-68
2021/07/15 10:30:00;;;;;;;4.40;3.00;;;;;;;;;;5010488;28;20057;-67
2021/07/15 10:32:26;;;;;;;5.22;3.05;;;;;;;;;;5019881;28;20146;-68
2021/07/15 10:34:54;;;;;;;3.45;2.75;;;;;;;;;;5021476;28;20058;-69
2021/07/15 10:37:20;;;;;;;4.70;2.60;;;;;;;;;;5021719;28;20056;-70
2021/07/15 10:39:47;;;;;;;3.75;2.58;;;;;;;;;;5021460;28;20045;-69
2021/07/15 10:42:13;;;;;;;3.25;2.53;;;;;;;;;;5016470;28;20121;-68
2021/07/15 10:44:41;;;;;;;3.67;2.72;;;;;;;;;;5020460;28;20029;-69
2021/07/15 10:47:07;;;;;;;3.60;2.83;;;;;;;;;;5024539;28;20034;-68
2021/07/15 10:49:33;;;;;;;2.78;2.45;;;;;;;;;;5020174;28;20030;-68
2021/07/15 10:52:03;;;;;;;5.30;2.97;;;;;;;;;;5027522;28;20053;-69
2021/07/15 10:54:29;;;;;;;4.55;2.90;;;;;;;;;;5024543;28;20017;-67
2021/07/15 10:56:56;;;;;;;2.60;2.40;;;;;;;;;;5026094;28;20025;-67
2021/07/15 10:59:32;;;;;;;3.70;2.90;;;;;;;;;;5011713;28;20614;-67
2021/07/15 11:01:59;;;;;;;3.75;2.97;;;;;;;;;;5017891;28;20037;-68
2021/07/15 11:04:36;;;;;;;3.88;2.65;;;;;;;;;;5026861;28;20029;-69
2021/07/15 11:07:21;;;;;;;3.60;2.35;;;;;;;;;;5015642;28;20034;-69
2021/07/15 11:09:47;;;;;;;5.35;2.92;;;;;;;;;;5022475;28;20083;-68
2021/07/15 11:12:36;;;;;;;3.80;2.67;;;;;;;;;;5016776;28;20060;-68
2021/07/15 11:15:13;;;;;;;3.72;3.03;;;;;;;;;;5012894;28;20071;-68
2021/07/15 11:17:42;;;;;;;4.10;2.70;;;;;;;;;;5020778;28;20040;-68
2021/07/15 11:20:09;;;;;;;2.95;2.53;;;;;;;;;;5015024;28;20069;-69
2021/07/15 11:22:35;;;;;;;3.38;2.80;;;;;;;;;;5022446;28;20029;-68
2021/07/15 11:25:05;;;;;;;4.45;2.75;;;;;;;;;;5021606;28;20044;-68
2021/07/15 11:27:42;;;;;;;3.97;2.83;;;;;;;;;;5022054;28;20492;-68
2021/07/15 11:30:13;;;;;;;4.25;2.63;;;;;;;;;;5012488;28;20075;-67
2021/07/15 11:32:39;;;;;;;3.25;2.50;;;;;;;;;;5015384;28;20038;-67
2021/07/15 11:35:21;;;;;;;3.60;2.70;;;;;;;;;;5018880;28;20062;-66
2021/07/15 11:38:01;;;;;;;4.38;2.92;;;;;;;;;;5018354;28;20104;-66
2021/07/15 11:40:36;;;;;;;6.28;3.05;;;;;;;;;;5016638;28;20056;-67
2021/07/15 11:43:16;;;;;;;6.70;3.40;;;;;;;;;;5013601;28;20026;-66
2021/07/15 11:46:01;;;;;;;3.50;2.80;;;;;;;;;;5008217;28;20040;-67
2021/07/15 11:48:42;;;;;;;7.45;2.80;;;;;;;;;;5017862;28;20036;-66
2021/07/15 11:51:28;;;;;;;3.58;2.80;;;;;;;;;;5022320;28;20048;-67
2021/07/15 11:54:13;;;;;;;3.83;3.10;;;;;;;;;;5001002;28;20025;-67
2021/07/15 11:56:39;;;;;;;3.00;2.60;;;;;;;;;;5013018;28;20044;-67
2021/07/15 11:59:05;;;;;;;3.40;2.75;;;;;;;;;;5015165;28;20033;-67
2021/07/15 12:01:33;;;;;;;3.78;3.00;;;;;;;;;;5026821;28;20044;-67
2021/07/15 12:03:59;;;;;;;3.22;2.60;;;;;;;;;;5025249;28;20083;-67
2021/07/15 12:06:25;;;;;;;3.38;2.90;;;;;;;;;;5026267;28;20029;-67
2021/07/15 12:08:51;;;;;;;3.65;2.90;;;;;;;;;;5009789;28;20044;-66
2021/07/15 12:11:21;;;;;;;4.57;2.90;;;;;;;;;;5015717;28;20037;-67
2021/07/15 12:13:51;;;;;;;3.50;2.78;;;;;;;;;;5010558;28;20030;-66
2021/07/15 12:16:21;;;;;;;5.40;3.35;;;;;;;;;;5016222;28;20025;-67
2021/07/15 12:18:47;;;;;;;4.38;3.22;;;;;;;;;;5011087;28;20674;-66
2021/07/15 12:21:13;;;;;;;4.47;3.40;;;;;;;;;;5019398;28;20495;-68
2021/07/15 12:23:41;;;;;;;4.05;2.60;;;;;;;;;;5015838;28;20058;-66
2021/07/15 12:26:10;;;;;;;4.47;2.80;;;;;;;;;;5019187;28;20036;-67
2021/07/15 12:28:36;;;;;;;3.63;3.17;;;;;;;;;;5007679;28;20049;-67
2021/07/15 12:31:04;;;;;;;2.72;2.47;;;;;;;;;;5014208;28;20152;-67
2021/07/15 12:33:39;;;;;;;3.20;2.90;;;;;;;;;;5026746;28;20030;-67
2021/07/15 12:36:09;;;;;;;3.20;2.75;;;;;;;;;;5011646;28;20034;-67
2021/07/15 12:38:35;;;;;;;4.25;2.80;;;;;;;;;;5009774;28;20132;-67
2021/07/15 12:41:11;;;;;;;4.65;3.25;;;;;;;;;;5007485;28;20045;-67
2021/07/15 12:43:50;;;;;;;3.17;2.88;;;;;;;;;;5006448;28;20029;-68
2021/07/15 12:46:18;;;;;;;2.92;2.60;;;;;;;;;;5007208;28;20808;-68
2021/07/15 12:48:45;;;;;;;4.13;2.80;;;;;;;;;;5026631;28;20037;-69
2021/07/15 12:51:12;;;;;;;4.22;2.75;;;;;;;;;;5030416;28;20037;-68
2021/07/15 12:53:42;;;;;;;2.83;2.55;;;;;;;;;;5023830;28;20033;-68
2021/07/15 12:56:08;;;;;;;3.20;2.85;;;;;;;;;;5020488;28;20520;-68
2021/07/15 12:58:34;;;;;;;3.85;3.00;;;;;;;;;;5011631;28;20080;-68
2021/07/15 13:01:01;;;;;;;4.22;2.65;;;;;;;;;;5016860;28;20045;-69
2021/07/15 13:03:28;;;;;;;4.20;3.13;;;;;;;;;;5020136;28;20037;-68
2021/07/15 13:05:54;;;;;;;3.45;2.80;;;;;;;;;;5009486;28;20479;-67
2021/07/15 13:08:26;;;;;;;3.60;2.85;;;;;;;;;;5013823;28;20034;-68
2021/07/15 13:16:19;;;;;;;3.15;2.85;;;;;;;;;;5029789;28;20036;-68
2021/07/15 13:18:45;;;;;;;2.90;2.60;;;;;;;;;;5029929;28;20400;-68
2021/07/15 13:21:12;;;;;;;3.00;2.70;;;;;;;;;;5030508;28;20033;-69
2021/07/15 13:23:41;;;;;;;2.72;2.50;;;;;;;;;;5019913;28;20034;-68
2021/07/15 13:26:08;;;;;;;4.03;2.70;;;;;;;;;;5012434;28;20103;-69
2021/07/15 13:28:34;;;;;;;3.33;2.90;;;;;;;;;;5012605;28;20026;-68
2021/07/15 13:31:10;;;;;;;3.13;2.80;;;;;;;;;;5010492;28;20040;-68
2021/07/15 13:33:41;;;;;;;4.13;2.53;;;;;;;;;;5010637;28;20025;-69
2021/07/15 13:36:07;;;;;;;2.90;2.53;;;;;;;;;;5010555;28;20033;-67
2021/07/15 13:38:44;;;;;;;3.80;2.95;;;;;;;;;;5010213;28;20493;-67
2021/07/15 13:41:42;;;;;;;3.65;2.70;;;;;;;;;;5010056;28;20535;-68
2021/07/15 13:44:10;;;;;;;3.92;2.92;;;;;;;;;;4964869;28;20415;-67
2021/07/15 13:46:37;;;;;;;3.10;2.80;;;;;;;;;;5030080;28;20061;-68
2021/07/15 13:49:03;;;;;;;3.10;2.80;;;;;;;;;;5030311;28;20037;-67
2021/07/15 13:51:29;;;;;;;7.22;3.28;;;;;;;;;;5029931;28;20068;-68
2021/07/15 13:53:56;;;;;;;3.42;2.88;;;;;;;;;;5029991;28;20032;-68
2021/07/15 13:56:22;;;;;;;3.63;3.22;;;;;;;;;;5029532;28;20392;-70
2021/07/15 13:58:49;;;;;;;3.42;3.13;;;;;;;;;;5030602;28;20506;-69
2021/07/15 14:01:25;;;;;;;5.55;3.65;;;;;;;;;;5029714;28;20041;-67
2021/07/15 14:03:52;;;;;;;3.50;2.90;;;;;;;;;;5030143;28;20515;-67
2021/07/15 14:06:18;;;;;;;3.53;3.10;;;;;;;;;;5030232;28;20038;-67
2021/07/15 14:08:45;;;;;;;3.22;2.83;;;;;;;;;;5030193;28;20034;-67
2021/07/15 14:11:14;;;;;;;3.20;2.75;;;;;;;;;;5030409;28;20731;-67
2021/07/15 14:13:40;;;;;;;3.10;2.75;;;;;;;;;;5030677;28;20087;-68
2021/07/15 14:16:07;;;;;;;6.32;2.50;;;;;;;;;;5030452;28;20443;-67
2021/07/15 14:18:33;;;;;;;4.70;3.53;;;;;;;;;;5030481;28;20112;-68
2021/07/15 14:21:00;;;;;;;4.35;2.90;;;;;;;;;;5030173;28;20440;-67
2021/07/15 14:23:27;;;;;;;5.00;3.28;;;;;;;;;;5030337;28;20025;-68
2021/07/15 14:25:55;;;;;;;3.55;2.80;;;;;;;;;;5030456;28;20035;-67
2021/07/15 14:28:21;;;;;;;3.75;2.83;;;;;;;;;;5030144;28;20710;-68
2021/07/15 14:30:48;;;;;;;3.65;2.60;;;;;;;;;;5029988;28;20033;-68
2021/07/15 14:33:14;;;;;;;3.63;2.50;;;;;;;;;;5030119;28;20696;-68
2021/07/15 14:35:41;;;;;;;4.55;2.63;;;;;;;;;;5023959;28;20062;-67
2021/07/15 14:38:08;;;;;;;3.17;2.72;;;;;;;;;;5010480;28;20025;-68
2021/07/15 14:40:34;;;;;;;4.50;2.85;;;;;;;;;;4971251;28;20054;-68
2021/07/15 14:43:01;;;;;;;3.40;2.67;;;;;;;;;;4971323;28;20031;-67
2021/07/15 14:45:27;;;;;;;4.15;2.78;;;;;;;;;;4971321;28;20031;-67
2021/07/15 14:47:54;;;;;;;2.90;2.58;;;;;;;;;;4971348;28;20382;-66
2021/07/15 14:50:23;;;;;;;3.67;2.58;;;;;;;;;;4971272;28;20038;-67
2021/07/15 14:52:49;;;;;;;3.15;2.83;;;;;;;;;;4970805;28;20446;-68
2021/07/15 14:55:16;;;;;;;3.65;2.72;;;;;;;;;;4971103;28;20059;-67
2021/07/15 14:57:42;;;;;;;5.25;2.80;;;;;;;;;;4970999;28;20026;-67